sensor_id;sensor_type;location;lat;lon;timestamp;P1;durP1;ratioP1;P2;durP2;ratioP2
21000;SDS011;10658;50.920;12.238;2023-02-03T00:03:05;5.55;;;3.55;;
21000;SDS011;10658;50.920;12.238;2023-02-03T00:07:08;5.10;;;3.50;;
21000;SDS011;10658;50.920;12.238;2023-02-03T00:11:12;4.68;;;2.78;;
21000;SDS011;10658;50.920;12.238;2023-02-03T00:15:15;3.10;;;2.42;;
21000;SDS011;10658;50.920;12.238;2023-02-03T00:19:16;4.20;;;2.53;;
21000;SDS011;10658;50.920;12.238;2023-02-03T00:23:19;3.53;;;1.95;;
21000;SDS011;10658;50.920;12.238;2023-02-03T00:27:22;4.32;;;2.45;;
21000;SDS011;10658;50.920;12.238;2023-02-03T00:31:27;4.93;;;2.10;;
21000;SDS011;10658;50.920;12.238;2023-02-03T00:35:30;2.92;;;2.10;;
21000;SDS011;10658;50.920;12.238;2023-02-03T00:39:32;2.85;;;2.30;;
21000;SDS011;10658;50.920;12.238;2023-02-03T00:43:41;2.25;;;1.80;;
21000;SDS011;10658;50.920;12.238;2023-02-03T00:47:43;2.17;;;1.80;;
21000;SDS011;10658;50.920;12.238;2023-02-03T00:51:44;1.65;;;1.55;;
21000;SDS011;10658;50.920;12.238;2023-02-03T00:55:49;2.78;;;1.10;;
21000;SDS011;10658;50.920;12.238;2023-02-03T00:59:52;1.83;;;1.15;;
21000;SDS011;10658;50.920;12.238;2023-02-03T01:03:55;3.25;;;1.58;;
21000;SDS011;10658;50.920;12.238;2023-02-03T01:08:18;1.33;;;1.15;;
21000;SDS011;10658;50.920;12.238;2023-02-03T01:12:20;1.63;;;0.88;;
21000;SDS011;10658;50.920;12.238;2023-02-03T01:16:29;1.40;;;1.08;;
21000;SDS011;10658;50.920;12.238;2023-02-03T01:20:39;1.35;;;1.02;;
21000;SDS011;10658;50.920;12.238;2023-02-03T01:24:46;1.65;;;0.95;;
21000;SDS011;10658;50.920;12.238;2023-02-03T01:28:57;1.98;;;0.98;;
21000;SDS011;10658;50.920;12.238;2023-02-03T01:33:01;1.20;;;1.10;;
21000;SDS011;10658;50.920;12.238;2023-02-03T01:37:06;1.42;;;1.20;;
21000;SDS011;10658;50.920;12.238;2023-02-03T01:41:09;0.80;;;0.80;;
21000;SDS011;10658;50.920;12.238;2023-02-03T01:45:13;1.20;;;1.10;;
21000;SDS011;10658;50.920;12.238;2023-02-03T01:49:18;1.48;;;0.93;;
21000;SDS011;10658;50.920;12.238;2023-02-03T01:53:24;1.27;;;1.02;;
21000;SDS011;10658;50.920;12.238;2023-02-03T01:57:32;1.33;;;1.13;;
21000;SDS011;10658;50.920;12.238;2023-02-03T02:01:39;2.33;;;1.15;;
21000;SDS011;10658;50.920;12.238;2023-02-03T02:05:46;1.00;;;1.00;;
21000;SDS011;10658;50.920;12.238;2023-02-03T02:10:10;1.38;;;1.08;;
21000;SDS011;10658;50.920;12.238;2023-02-03T02:14:16;1.25;;;0.90;;
21000;SDS011;10658;50.920;12.238;2023-02-03T02:18:28;0.60;;;0.60;;
21000;SDS011;10658;50.920;12.238;2023-02-03T02:32:47;0.93;;;0.80;;
21000;SDS011;10658;50.920;12.238;2023-02-03T02:41:22;1.27;;;1.00;;
21000;SDS011;10658;50.920;12.238;2023-02-03T02:46:26;0.68;;;0.65;;
21000;SDS011;10658;50.920;12.238;2023-02-03T02:50:45;1.00;;;0.90;;
21000;SDS011;10658;50.920;12.238;2023-02-03T02:54:59;2.88;;;1.20;;
21000;SDS011;10658;50.920;12.238;2023-02-03T02:59:15;1.85;;;0.95;;
21000;SDS011;10658;50.920;12.238;2023-02-03T03:03:19;1.15;;;0.73;;
21000;SDS011;10658;50.920;12.238;2023-02-03T03:07:23;1.42;;;0.95;;
21000;SDS011;10658;50.920;12.238;2023-02-03T03:11:33;1.40;;;0.98;;
21000;SDS011;10658;50.920;12.238;2023-02-03T03:15:41;2.95;;;1.85;;
21000;SDS011;10658;50.920;12.238;2023-02-03T03:19:45;2.47;;;1.52;;
21000;SDS011;10658;50.920;12.238;2023-02-03T03:23:51;4.45;;;1.20;;
21000;SDS011;10658;50.920;12.238;2023-02-03T03:28:04;2.00;;;1.60;;
21000;SDS011;10658;50.920;12.238;2023-02-03T03:32:09;4.35;;;1.13;;
21000;SDS011;10658;50.920;12.238;2023-02-03T03:40:30;2.45;;;1.48;;
21000;SDS011;10658;50.920;12.238;2023-02-03T03:45:03;2.42;;;1.50;;
21000;SDS011;10658;50.920;12.238;2023-02-03T03:49:17;3.55;;;1.90;;
21000;SDS011;10658;50.920;12.238;2023-02-03T03:53:23;3.13;;;1.50;;
21000;SDS011;10658;50.920;12.238;2023-02-03T03:57:38;2.63;;;2.30;;
21000;SDS011;10658;50.920;12.238;2023-02-03T04:01:45;2.97;;;1.92;;
21000;SDS011;10658;50.920;12.238;2023-02-03T04:05:48;3.05;;;2.28;;
21000;SDS011;10658;50.920;12.238;2023-02-03T04:09:50;3.22;;;2.15;;
21000;SDS011;10658;50.920;12.238;2023-02-03T04:13:53;3.13;;;1.92;;
21000;SDS011;10658;50.920;12.238;2023-02-03T04:17:55;3.20;;;2.10;;
21000;SDS011;10658;50.920;12.238;2023-02-03T04:21:58;5.40;;;3.03;;
21000;SDS011;10658;50.920;12.238;2023-02-03T04:26:06;4.45;;;2.60;;
21000;SDS011;10658;50.920;12.238;2023-02-03T04:30:10;4.32;;;2.78;;
21000;SDS011;10658;50.920;12.238;2023-02-03T04:34:12;7.82;;;3.35;;
21000;SDS011;10658;50.920;12.238;2023-02-03T04:38:14;5.63;;;3.10;;
21000;SDS011;10658;50.920;12.238;2023-02-03T04:42:15;5.28;;;3.22;;
21000;SDS011;10658;50.920;12.238;2023-02-03T04:46:16;7.28;;;3.33;;
21000;SDS011;10658;50.920;12.238;2023-02-03T04:50:22;5.40;;;3.28;;
21000;SDS011;10658;50.920;12.238;2023-02-03T04:54:31;5.25;;;3.47;;
21000;SDS011;10658;50.920;12.238;2023-02-03T04:58:37;7.57;;;4.00;;
21000;SDS011;10658;50.920;12.238;2023-02-03T05:02:44;6.57;;;3.42;;
21000;SDS011;10658;50.920;12.238;2023-02-03T05:06:48;4.47;;;3.20;;
21000;SDS011;10658;50.920;12.238;2023-02-03T05:10:56;6.90;;;3.53;;
21000;SDS011;10658;50.920;12.238;2023-02-03T05:15:05;5.60;;;3.72;;
21000;SDS011;10658;50.920;12.238;2023-02-03T05:19:11;8.05;;;4.20;;
21000;SDS011;10658;50.920;12.238;2023-02-03T05:23:14;3.20;;;2.65;;
21000;SDS011;10658;50.920;12.238;2023-02-03T05:27:19;7.00;;;3.55;;
21000;SDS011;10658;50.920;12.238;2023-02-03T05:31:24;4.05;;;2.92;;
21000;SDS011;10658;50.920;12.238;2023-02-03T05:35:26;3.40;;;2.83;;
21000;SDS011;10658;50.920;12.238;2023-02-03T05:39:27;3.20;;;2.90;;
21000;SDS011;10658;50.920;12.238;2023-02-03T05:43:32;4.25;;;3.10;;
21000;SDS011;10658;50.920;12.238;2023-02-03T05:47:35;4.45;;;2.33;;
21000;SDS011;10658;50.920;12.238;2023-02-03T05:51:41;4.75;;;2.75;;
21000;SDS011;10658;50.920;12.238;2023-02-03T05:55:43;2.88;;;2.00;;
21000;SDS011;10658;50.920;12.238;2023-02-03T05:59:45;3.35;;;2.40;;
21000;SDS011;10658;50.920;12.238;2023-02-03T06:03:46;3.88;;;2.20;;
21000;SDS011;10658;50.920;12.238;2023-02-03T06:07:51;2.45;;;1.83;;
21000;SDS011;10658;50.920;12.238;2023-02-03T06:11:53;1.77;;;1.55;;
21000;SDS011;10658;50.920;12.238;2023-02-03T06:15:55;3.63;;;1.90;;
21000;SDS011;10658;50.920;12.238;2023-02-03T06:19:58;2.15;;;1.63;;
21000;SDS011;10658;50.920;12.238;2023-02-03T06:24:01;1.90;;;1.70;;
21000;SDS011;10658;50.920;12.238;2023-02-03T06:28:05;2.33;;;1.23;;
21000;SDS011;10658;50.920;12.238;2023-02-03T06:32:10;1.65;;;1.42;;
21000;SDS011;10658;50.920;12.238;2023-02-03T06:36:13;1.98;;;1.33;;
21000;SDS011;10658;50.920;12.238;2023-02-03T06:40:14;1.95;;;1.58;;
21000;SDS011;10658;50.920;12.238;2023-02-03T06:44:18;1.85;;;0.82;;
21000;SDS011;10658;50.920;12.238;2023-02-03T06:48:20;2.72;;;1.60;;
21000;SDS011;10658;50.920;12.238;2023-02-03T06:52:26;1.77;;;1.20;;
21000;SDS011;10658;50.920;12.238;2023-02-03T06:56:34;1.60;;;1.30;;
21000;SDS011;10658;50.920;12.238;2023-02-03T07:00:36;1.23;;;1.05;;
21000;SDS011;10658;50.920;12.238;2023-02-03T07:04:37;1.52;;;1.40;;
21000;SDS011;10658;50.920;12.238;2023-02-03T07:08:40;2.38;;;1.27;;
21000;SDS011;10658;50.920;12.238;2023-02-03T07:12:42;2.95;;;1.88;;
21000;SDS011;10658;50.920;12.238;2023-02-03T07:16:44;2.72;;;1.45;;
21000;SDS011;10658;50.920;12.238;2023-02-03T07:20:46;2.60;;;1.90;;
21000;SDS011;10658;50.920;12.238;2023-02-03T07:24:47;2.88;;;1.65;;
21000;SDS011;10658;50.920;12.238;2023-02-03T07:28:54;1.85;;;1.40;;
21000;SDS011;10658;50.920;12.238;2023-02-03T07:33:01;1.52;;;1.42;;
21000;SDS011;10658;50.920;12.238;2023-02-03T07:37:08;1.85;;;1.30;;
21000;SDS011;10658;50.920;12.238;2023-02-03T07:41:12;1.05;;;1.05;;
21000;SDS011;10658;50.920;12.238;2023-02-03T07:45:17;3.10;;;1.80;;
21000;SDS011;10658;50.920;12.238;2023-02-03T07:49:20;1.92;;;1.70;;
21000;SDS011;10658;50.920;12.238;2023-02-03T07:53:25;2.88;;;1.98;;
21000;SDS011;10658;50.920;12.238;2023-02-03T07:57:26;3.40;;;2.00;;
21000;SDS011;10658;50.920;12.238;2023-02-03T08:01:31;3.20;;;1.60;;
21000;SDS011;10658;50.920;12.238;2023-02-03T08:05:35;4.85;;;1.63;;
21000;SDS011;10658;50.920;12.238;2023-02-03T08:09:37;5.72;;;1.83;;
21000;SDS011;10658;50.920;12.238;2023-02-03T08:13:48;5.30;;;2.17;;
21000;SDS011;10658;50.920;12.238;2023-02-03T08:17:57;4.30;;;1.80;;
21000;SDS011;10658;50.920;12.238;2023-02-03T08:21:58;3.33;;;1.90;;
21000;SDS011;10658;50.920;12.238;2023-02-03T08:26:01;2.80;;;2.20;;
21000;SDS011;10658;50.920;12.238;2023-02-03T08:30:05;3.33;;;1.83;;
21000;SDS011;10658;50.920;12.238;2023-02-03T08:34:11;4.15;;;1.90;;
21000;SDS011;10658;50.920;12.238;2023-02-03T08:38:13;1.58;;;1.48;;
21000;SDS011;10658;50.920;12.238;2023-02-03T08:42:14;5.32;;;1.60;;
21000;SDS011;10658;50.920;12.238;2023-02-03T08:46:20;2.20;;;1.88;;
21000;SDS011;10658;50.920;12.238;2023-02-03T08:50:28;2.72;;;1.70;;
21000;SDS011;10658;50.920;12.238;2023-02-03T08:54:29;11.07;;;2.08;;
21000;SDS011;10658;50.920;12.238;2023-02-03T08:58:32;1.90;;;1.50;;
21000;SDS011;10658;50.920;12.238;2023-02-03T09:02:35;1.77;;;1.58;;
21000;SDS011;10658;50.920;12.238;2023-02-03T09:06:42;4.30;;;2.00;;
21000;SDS011;10658;50.920;12.238;2023-02-03T09:15:59;3.80;;;1.50;;
21000;SDS011;10658;50.920;12.238;2023-02-03T09:20:02;3.53;;;1.35;;
21000;SDS011;10658;50.920;12.238;2023-02-03T09:24:05;2.20;;;1.50;;
21000;SDS011;10658;50.920;12.238;2023-02-03T09:28:06;2.63;;;1.63;;
21000;SDS011;10658;50.920;12.238;2023-02-03T09:32:12;2.35;;;1.27;;
21000;SDS011;10658;50.920;12.238;2023-02-03T09:36:16;3.17;;;1.70;;
21000;SDS011;10658;50.920;12.238;2023-02-03T09:40:25;2.72;;;1.20;;
21000;SDS011;10658;50.920;12.238;2023-02-03T09:48:42;2.13;;;1.58;;
21000;SDS011;10658;50.920;12.238;2023-02-03T09:52:47;2.42;;;1.70;;
21000;SDS011;10658;50.920;12.238;2023-02-03T09:56:52;1.55;;;0.90;;
21000;SDS011;10658;50.920;12.238;2023-02-03T10:01:00;2.33;;;1.55;;
21000;SDS011;10658;50.920;12.238;2023-02-03T10:09:58;2.75;;;1.50;;
21000;SDS011;10658;50.920;12.238;2023-02-03T10:18:46;0.90;;;0.90;;
21000;SDS011;10658;50.920;12.238;2023-02-03T10:22:52;2.83;;;1.50;;
21000;SDS011;10658;50.920;12.238;2023-02-03T10:27:09;2.33;;;2.08;;
21000;SDS011;10658;50.920;12.238;2023-02-03T10:31:20;3.03;;;1.15;;
21000;SDS011;10658;50.920;12.238;2023-02-03T10:35:27;2.95;;;1.00;;
21000;SDS011;10658;50.920;12.238;2023-02-03T10:43:50;2.17;;;1.10;;
21000;SDS011;10658;50.920;12.238;2023-02-03T10:47:55;1.15;;;0.65;;
21000;SDS011;10658;50.920;12.238;2023-02-03T10:51:58;1.17;;;1.08;;
21000;SDS011;10658;50.920;12.238;2023-02-03T10:56:09;0.85;;;0.80;;
21000;SDS011;10658;50.920;12.238;2023-02-03T11:00:33;4.30;;;1.20;;
21000;SDS011;10658;50.920;12.238;2023-02-03T11:04:39;1.40;;;1.00;;
21000;SDS011;10658;50.920;12.238;2023-02-03T11:08:41;1.05;;;0.85;;
21000;SDS011;10658;50.920;12.238;2023-02-03T11:12:44;0.77;;;0.73;;
21000;SDS011;10658;50.920;12.238;2023-02-03T11:16:46;3.08;;;0.43;;
21000;SDS011;10658;50.920;12.238;2023-02-03T11:20:48;1.52;;;0.73;;
21000;SDS011;10658;50.920;12.238;2023-02-03T11:24:52;3.75;;;1.00;;
21000;SDS011;10658;50.920;12.238;2023-02-03T11:28:55;0.73;;;0.73;;
21000;SDS011;10658;50.920;12.238;2023-02-03T11:33:01;2.47;;;0.60;;
21000;SDS011;10658;50.920;12.238;2023-02-03T11:37:25;0.75;;;0.70;;
21000;SDS011;10658;50.920;12.238;2023-02-03T11:41:38;0.80;;;0.60;;
21000;SDS011;10658;50.920;12.238;2023-02-03T11:45:46;1.13;;;1.02;;
21000;SDS011;10658;50.920;12.238;2023-02-03T11:50:09;2.03;;;0.52;;
21000;SDS011;10658;50.920;12.238;2023-02-03T12:32:01;1.05;;;0.75;;
21000;SDS011;10658;50.920;12.238;2023-02-03T12:36:14;1.67;;;1.10;;
21000;SDS011;10658;50.920;12.238;2023-02-03T12:40:46;0.40;;;0.40;;
21000;SDS011;10658;50.920;12.238;2023-02-03T12:49:04;1.67;;;0.80;;
21000;SDS011;10658;50.920;12.238;2023-02-03T12:53:38;2.30;;;0.75;;
21000;SDS011;10658;50.920;12.238;2023-02-03T13:02:07;1.92;;;0.90;;
21000;SDS011;10658;50.920;12.238;2023-02-03T13:15:34;2.58;;;1.45;;
21000;SDS011;10658;50.920;12.238;2023-02-03T13:19:46;1.77;;;1.23;;
21000;SDS011;10658;50.920;12.238;2023-02-03T13:23:51;1.45;;;1.35;;
21000;SDS011;10658;50.920;12.238;2023-02-03T13:32:35;2.00;;;1.80;;
21000;SDS011;10658;50.920;12.238;2023-02-03T13:45:47;5.32;;;1.33;;
21000;SDS011;10658;50.920;12.238;2023-02-03T13:50:34;2.22;;;1.20;;
21000;SDS011;10658;50.920;12.238;2023-02-03T13:54:29;1.27;;;0.80;;
21000;SDS011;10658;50.920;12.238;2023-02-03T13:58:38;2.00;;;1.58;;
21000;SDS011;10658;50.920;12.238;2023-02-03T14:02:44;5.68;;;1.63;;
21000;SDS011;10658;50.920;12.238;2023-02-03T14:15:33;4.25;;;1.60;;
21000;SDS011;10658;50.920;12.238;2023-02-03T14:23:56;6.60;;;1.88;;
21000;SDS011;10658;50.920;12.238;2023-02-03T14:28:19;6.80;;;1.42;;
21000;SDS011;10658;50.920;12.238;2023-02-03T14:32:24;5.78;;;2.78;;
21000;SDS011;10658;50.920;12.238;2023-02-03T14:36:56;8.43;;;3.38;;
21000;SDS011;10658;50.920;12.238;2023-02-03T14:56:40;10.35;;;3.08;;
21000;SDS011;10658;50.920;12.238;2023-02-03T15:13:45;12.32;;;1.77;;
21000;SDS011;10658;50.920;12.238;2023-02-03T15:17:49;10.57;;;2.55;;
21000;SDS011;10658;50.920;12.238;2023-02-03T15:21:52;5.45;;;2.13;;
21000;SDS011;10658;50.920;12.238;2023-02-03T15:25:59;4.65;;;1.25;;
21000;SDS011;10658;50.920;12.238;2023-02-03T15:30:33;6.70;;;2.10;;
21000;SDS011;10658;50.920;12.238;2023-02-03T15:34:46;6.57;;;2.00;;
21000;SDS011;10658;50.920;12.238;2023-02-03T15:38:52;7.85;;;2.08;;
21000;SDS011;10658;50.920;12.238;2023-02-03T15:43:08;6.15;;;1.98;;
21000;SDS011;10658;50.920;12.238;2023-02-03T15:47:37;8.48;;;2.05;;
21000;SDS011;10658;50.920;12.238;2023-02-03T15:51:44;12.52;;;3.00;;
21000;SDS011;10658;50.920;12.238;2023-02-03T15:57:02;18.73;;;7.20;;
21000;SDS011;10658;50.920;12.238;2023-02-03T16:00:55;12.05;;;3.20;;
21000;SDS011;10658;50.920;12.238;2023-02-03T16:09:38;9.60;;;3.00;;
21000;SDS011;10658;50.920;12.238;2023-02-03T16:13:44;12.63;;;3.15;;
21000;SDS011;10658;50.920;12.238;2023-02-03T16:17:52;10.65;;;2.80;;
21000;SDS011;10658;50.920;12.238;2023-02-03T16:22:26;8.73;;;2.58;;
21000;SDS011;10658;50.920;12.238;2023-02-03T16:26:35;7.60;;;2.15;;
21000;SDS011;10658;50.920;12.238;2023-02-03T16:31:12;6.15;;;2.03;;
21000;SDS011;10658;50.920;12.238;2023-02-03T16:35:37;7.40;;;2.30;;
21000;SDS011;10658;50.920;12.238;2023-02-03T16:40:23;12.50;;;2.35;;
21000;SDS011;10658;50.920;12.238;2023-02-03T16:44:49;7.95;;;2.47;;
21000;SDS011;10658;50.920;12.238;2023-02-03T16:49:14;6.25;;;1.92;;
21000;SDS011;10658;50.920;12.238;2023-02-03T16:53:35;11.23;;;2.75;;
21000;SDS011;10658;50.920;12.238;2023-02-03T16:57:36;7.53;;;1.90;;
21000;SDS011;10658;50.920;12.238;2023-02-03T17:01:42;6.10;;;2.00;;
21000;SDS011;10658;50.920;12.238;2023-02-03T17:06:08;11.13;;;3.20;;
21000;SDS011;10658;50.920;12.238;2023-02-03T17:10:16;7.65;;;3.30;;
21000;SDS011;10658;50.920;12.238;2023-02-03T17:14:19;7.78;;;3.45;;
21000;SDS011;10658;50.920;12.238;2023-02-03T17:18:30;16.30;;;2.97;;
21000;SDS011;10658;50.920;12.238;2023-02-03T17:22:37;7.18;;;2.30;;
21000;SDS011;10658;50.920;12.238;2023-02-03T17:26:40;11.40;;;3.10;;
21000;SDS011;10658;50.920;12.238;2023-02-03T17:30:42;14.40;;;2.97;;
21000;SDS011;10658;50.920;12.238;2023-02-03T17:34:47;8.25;;;2.40;;
21000;SDS011;10658;50.920;12.238;2023-02-03T17:38:53;8.88;;;2.70;;
21000;SDS011;10658;50.920;12.238;2023-02-03T17:42:57;10.25;;;2.22;;
21000;SDS011;10658;50.920;12.238;2023-02-03T17:47:00;9.90;;;2.33;;
21000;SDS011;10658;50.920;12.238;2023-02-03T17:51:14;2.80;;;1.45;;
21000;SDS011;10658;50.920;12.238;2023-02-03T17:55:20;15.52;;;4.32;;
21000;SDS011;10658;50.920;12.238;2023-02-03T17:59:22;5.68;;;2.30;;
21000;SDS011;10658;50.920;12.238;2023-02-03T18:03:24;7.78;;;2.20;;
21000;SDS011;10658;50.920;12.238;2023-02-03T18:07:44;3.25;;;1.73;;
21000;SDS011;10658;50.920;12.238;2023-02-03T18:11:47;7.63;;;2.08;;
21000;SDS011;10658;50.920;12.238;2023-02-03T18:15:50;5.45;;;2.53;;
21000;SDS011;10658;50.920;12.238;2023-02-03T18:19:51;4.00;;;2.03;;
21000;SDS011;10658;50.920;12.238;2023-02-03T18:23:54;14.52;;;2.72;;
21000;SDS011;10658;50.920;12.238;2023-02-03T18:28:02;8.07;;;1.75;;
21000;SDS011;10658;50.920;12.238;2023-02-03T18:32:11;9.63;;;2.28;;
21000;SDS011;10658;50.920;12.238;2023-02-03T18:36:14;6.32;;;2.25;;
21000;SDS011;10658;50.920;12.238;2023-02-03T18:40:17;11.57;;;1.95;;
21000;SDS011;10658;50.920;12.238;2023-02-03T18:44:26;4.13;;;1.75;;
21000;SDS011;10658;50.920;12.238;2023-02-03T18:48:32;14.23;;;3.38;;
21000;SDS011;10658;50.920;12.238;2023-02-03T18:52:34;7.50;;;1.95;;
21000;SDS011;10658;50.920;12.238;2023-02-03T18:56:38;8.02;;;2.20;;
21000;SDS011;10658;50.920;12.238;2023-02-03T19:00:41;7.40;;;2.70;;
21000;SDS011;10658;50.920;12.238;2023-02-03T19:04:44;13.82;;;2.45;;
21000;SDS011;10658;50.920;12.238;2023-02-03T19:08:53;7.32;;;2.00;;
21000;SDS011;10658;50.920;12.238;2023-02-03T19:12:55;8.35;;;2.47;;
21000;SDS011;10658;50.920;12.238;2023-02-03T19:16:56;8.90;;;2.55;;
21000;SDS011;10658;50.920;12.238;2023-02-03T19:20:59;9.77;;;2.63;;
21000;SDS011;10658;50.920;12.238;2023-02-03T19:25:01;8.73;;;1.85;;
21000;SDS011;10658;50.920;12.238;2023-02-03T19:29:04;6.03;;;2.67;;
21000;SDS011;10658;50.920;12.238;2023-02-03T19:33:07;13.55;;;2.72;;
21000;SDS011;10658;50.920;12.238;2023-02-03T19:37:09;8.80;;;3.53;;
21000;SDS011;10658;50.920;12.238;2023-02-03T19:41:13;11.23;;;2.78;;
21000;SDS011;10658;50.920;12.238;2023-02-03T19:45:16;10.00;;;3.42;;
21000;SDS011;10658;50.920;12.238;2023-02-03T19:49:18;9.43;;;2.30;;
21000;SDS011;10658;50.920;12.238;2023-02-03T19:53:21;3.90;;;1.73;;
21000;SDS011;10658;50.920;12.238;2023-02-03T19:57:23;10.15;;;2.88;;
21000;SDS011;10658;50.920;12.238;2023-02-03T20:01:29;6.43;;;2.38;;
21000;SDS011;10658;50.920;12.238;2023-02-03T20:05:32;10.35;;;3.03;;
21000;SDS011;10658;50.920;12.238;2023-02-03T20:09:35;6.75;;;1.98;;
21000;SDS011;10658;50.920;12.238;2023-02-03T20:13:38;13.45;;;2.95;;
21000;SDS011;10658;50.920;12.238;2023-02-03T20:18:03;13.25;;;2.25;;
21000;SDS011;10658;50.920;12.238;2023-02-03T20:22:06;14.10;;;2.40;;
21000;SDS011;10658;50.920;12.238;2023-02-03T20:26:10;8.38;;;2.83;;
21000;SDS011;10658;50.920;12.238;2023-02-03T20:30:14;12.73;;;2.13;;
21000;SDS011;10658;50.920;12.238;2023-02-03T20:34:15;9.95;;;2.13;;
21000;SDS011;10658;50.920;12.238;2023-02-03T20:38:22;5.00;;;2.33;;
21000;SDS011;10658;50.920;12.238;2023-02-03T20:42:27;8.00;;;1.85;;
21000;SDS011;10658;50.920;12.238;2023-02-03T20:46:28;9.35;;;2.65;;
21000;SDS011;10658;50.920;12.238;2023-02-03T20:50:37;10.60;;;3.50;;
21000;SDS011;10658;50.920;12.238;2023-02-03T20:54:46;7.95;;;2.00;;
21000;SDS011;10658;50.920;12.238;2023-02-03T20:58:50;6.53;;;2.33;;
21000;SDS011;10658;50.920;12.238;2023-02-03T21:02:51;5.50;;;1.70;;
21000;SDS011;10658;50.920;12.238;2023-02-03T21:07:21;11.50;;;2.33;;
21000;SDS011;10658;50.920;12.238;2023-02-03T21:11:27;5.63;;;2.33;;
21000;SDS011;10658;50.920;12.238;2023-02-03T21:15:30;8.75;;;2.05;;
21000;SDS011;10658;50.920;12.238;2023-02-03T21:19:37;7.63;;;2.40;;
21000;SDS011;10658;50.920;12.238;2023-02-03T21:23:39;13.52;;;3.05;;
21000;SDS011;10658;50.920;12.238;2023-02-03T21:27:44;5.55;;;1.92;;
21000;SDS011;10658;50.920;12.238;2023-02-03T21:31:47;9.05;;;2.20;;
21000;SDS011;10658;50.920;12.238;2023-02-03T21:35:52;9.75;;;2.45;;
21000;SDS011;10658;50.920;12.238;2023-02-03T21:40:02;15.85;;;2.25;;
21000;SDS011;10658;50.920;12.238;2023-02-03T21:48:40;3.67;;;1.55;;
21000;SDS011;10658;50.920;12.238;2023-02-03T21:52:46;17.70;;;2.35;;
21000;SDS011;10658;50.920;12.238;2023-02-03T21:56:50;10.90;;;2.65;;
21000;SDS011;10658;50.920;12.238;2023-02-03T22:01:01;9.40;;;2.40;;
21000;SDS011;10658;50.920;12.238;2023-02-03T22:05:18;5.95;;;1.85;;
21000;SDS011;10658;50.920;12.238;2023-02-03T22:09:24;5.95;;;1.98;;
21000;SDS011;10658;50.920;12.238;2023-02-03T22:13:27;12.80;;;2.53;;
21000;SDS011;10658;50.920;12.238;2023-02-03T22:17:32;16.45;;;2.75;;
21000;SDS011;10658;50.920;12.238;2023-02-03T22:21:35;8.52;;;2.53;;
21000;SDS011;10658;50.920;12.238;2023-02-03T22:25:36;10.15;;;2.47;;
21000;SDS011;10658;50.920;12.238;2023-02-03T22:29:40;11.23;;;2.22;;
21000;SDS011;10658;50.920;12.238;2023-02-03T22:33:42;14.60;;;1.60;;
21000;SDS011;10658;50.920;12.238;2023-02-03T22:37:45;7.60;;;2.25;;
21000;SDS011;10658;50.920;12.238;2023-02-03T22:41:47;11.50;;;1.88;;
21000;SDS011;10658;50.920;12.238;2023-02-03T22:45:50;6.43;;;2.38;;
21000;SDS011;10658;50.920;12.238;2023-02-03T22:49:54;10.18;;;2.10;;
21000;SDS011;10658;50.920;12.238;2023-02-03T22:53:55;6.60;;;2.35;;
21000;SDS011;10658;50.920;12.238;2023-02-03T22:57:56;7.35;;;2.08;;
21000;SDS011;10658;50.920;12.238;2023-02-03T23:01:59;4.45;;;1.73;;
21000;SDS011;10658;50.920;12.238;2023-02-03T23:06:06;8.02;;;1.88;;
21000;SDS011;10658;50.920;12.238;2023-02-03T23:10:11;4.55;;;2.00;;
21000;SDS011;10658;50.920;12.238;2023-02-03T23:14:19;9.25;;;1.98;;
21000;SDS011;10658;50.920;12.238;2023-02-03T23:18:23;9.15;;;2.28;;
21000;SDS011;10658;50.920;12.238;2023-02-03T23:22:26;5.20;;;2.10;;
21000;SDS011;10658;50.920;12.238;2023-02-03T23:26:50;5.28;;;1.42;;
21000;SDS011;10658;50.920;12.238;2023-02-03T23:30:53;4.88;;;1.83;;
21000;SDS011;10658;50.920;12.238;2023-02-03T23:34:56;2.08;;;1.00;;
21000;SDS011;10658;50.920;12.238;2023-02-03T23:39:18;12.48;;;2.65;;
21000;SDS011;10658;50.920;12.238;2023-02-03T23:43:22;2.33;;;1.45;;
21000;SDS011;10658;50.920;12.238;2023-02-03T23:47:27;7.35;;;2.05;;
21000;SDS011;10658;50.920;12.238;2023-02-03T23:51:32;16.23;;;2.40;;
21000;SDS011;10658;50.920;12.238;2023-02-03T23:55:39;6.40;;;1.95;;
21000;SDS011;10658;50.920;12.238;2023-02-03T23:59:41;11.13;;;2.08;;
